createdAt,value
2023-04-05T00:04:15.637Z,100
2023-04-05T00:09:17.357Z,100
2023-04-05T00:14:18.614Z,100
2023-04-05T00:19:20.046Z,100
2023-04-05T00:24:21.314Z,100
2023-04-05T00:29:22.607Z,100
2023-04-05T00:34:23.996Z,100
2023-04-05T00:39:25.243Z,100
2023-04-05T00:44:26.613Z,100
2023-04-05T00:49:27.903Z,100
2023-04-05T00:54:29.178Z,100
2023-04-05T00:59:30.496Z,100
2023-04-05T01:04:31.969Z,100
2023-04-05T01:09:33.368Z,100
2023-04-05T01:14:36.440Z,100
2023-04-05T01:19:37.806Z,100
2023-04-05T01:24:39.084Z,100
2023-04-05T01:29:40.577Z,100
2023-04-05T01:34:41.970Z,100
2023-04-05T01:39:43.508Z,100
2023-04-05T01:44:44.812Z,100
2023-04-05T01:49:46.204Z,100
2023-04-05T01:54:47.488Z,100
2023-04-05T01:59:48.721Z,100
2023-04-05T02:04:50.245Z,100
2023-04-05T02:09:51.540Z,100
2023-04-05T02:14:52.747Z,100
2023-04-05T02:19:54.631Z,100
2023-04-05T02:24:55.998Z,100
2023-04-05T02:29:57.262Z,100
2023-04-05T02:34:58.807Z,100
2023-04-05T02:40:00.106Z,100
2023-04-05T02:45:01.481Z,100
2023-04-05T02:50:02.970Z,100
2023-04-05T02:55:04.400Z,100
2023-04-05T03:00:05.785Z,100
2023-04-05T03:05:07.459Z,99.74032
2023-04-05T03:10:08.726Z,100
2023-04-05T03:15:10.112Z,100
2023-04-05T03:20:11.703Z,100
2023-04-05T03:25:13.090Z,100
2023-04-05T03:30:14.426Z,100
2023-04-05T03:35:15.714Z,100
2023-04-05T03:40:17.044Z,100
2023-04-05T03:45:22.260Z,100
2023-04-05T03:50:25.607Z,100
2023-04-05T03:55:26.961Z,100
2023-04-05T04:00:28.232Z,100
2023-04-05T04:05:29.620Z,100
2023-04-05T04:10:31.095Z,100
2023-04-05T04:15:32.448Z,100
2023-04-05T04:20:33.831Z,100
2023-04-05T04:25:35.121Z,100
2023-04-05T04:30:36.576Z,100
2023-04-05T04:35:38.113Z,100
2023-04-05T04:40:39.438Z,100
2023-04-05T04:45:41.124Z,100
2023-04-05T04:50:42.825Z,100
2023-04-05T04:55:44.084Z,100
2023-04-05T05:00:45.760Z,100
2023-04-05T05:05:47.068Z,100
2023-04-05T05:10:48.325Z,100
2023-04-05T05:15:49.623Z,100
2023-04-05T05:20:51.295Z,100
2023-04-05T05:25:52.649Z,100
2023-04-05T05:30:53.988Z,100
2023-04-05T05:35:55.302Z,100
2023-04-05T05:40:56.622Z,100
2023-04-05T05:45:58.092Z,100
2023-04-05T05:50:59.408Z,100
2023-04-05T05:56:00.677Z,100
2023-04-05T06:01:02.026Z,100
2023-04-05T06:06:03.540Z,100
2023-04-05T06:11:04.814Z,100
2023-04-05T06:16:06.106Z,100
2023-04-05T06:21:07.745Z,100
2023-04-05T06:26:09.001Z,100
2023-04-05T06:31:11.580Z,100
2023-04-05T06:36:12.986Z,100
2023-04-05T06:41:14.329Z,100
2023-04-05T06:46:16.093Z,100
2023-04-05T06:51:17.414Z,100
2023-04-05T06:56:18.945Z,100
2023-04-05T07:01:20.428Z,100
2023-04-05T07:06:22.086Z,100
2023-04-05T07:11:23.379Z,100
2023-04-05T07:16:24.688Z,100
2023-04-05T07:21:26.220Z,100
2023-04-05T07:26:27.526Z,100
2023-04-05T07:31:28.845Z,100
2023-04-05T07:36:30.202Z,100
2023-04-05T07:41:31.551Z,100
2023-04-05T07:46:33.043Z,100
2023-04-05T07:51:34.444Z,100
2023-04-05T07:56:35.705Z,98.33808
2023-04-05T08:01:36.952Z,94.27185
2023-04-05T08:06:38.266Z,95.93039
2023-04-05T08:11:39.660Z,92.77519
2023-04-05T08:16:41.060Z,84.9431
2023-04-05T08:21:42.406Z,85.69484
2023-04-05T08:26:43.838Z,86.40656
2023-04-05T08:31:45.448Z,85.31815
2023-04-05T08:36:48.731Z,81.7696
2023-04-05T08:41:50.300Z,73.49196
2023-04-05T08:46:51.638Z,73.83342
2023-04-05T08:51:53.023Z,69.30119
2023-04-05T08:56:54.270Z,62.99728
2023-04-05T09:01:55.564Z,63.67627
2023-04-05T09:06:56.849Z,59.47473
2023-04-05T09:11:58.109Z,61.34394
2023-04-05T09:16:59.474Z,53.88529
2023-04-05T09:22:01.093Z,51.02877
2023-04-05T09:27:02.429Z,48.29607
2023-04-05T09:32:03.743Z,49.8791
2023-04-05T09:37:05.352Z,43.73242
2023-04-05T09:42:06.605Z,47.16033
2023-04-05T09:47:08.055Z,44.37655
2023-04-05T09:52:09.343Z,43.62337
2023-04-05T09:57:10.616Z,40.59873
2023-04-05T10:02:11.995Z,43.92946
2023-04-05T10:07:13.476Z,42.25547
2023-04-05T10:12:14.822Z,40.21061
2023-04-05T10:17:16.080Z,41.47351
2023-04-05T10:22:17.684Z,39.60176
2023-04-05T10:27:18.963Z,40.61477
2023-04-05T10:32:20.404Z,42.68955
2023-04-05T10:37:21.976Z,42.10317
2023-04-05T10:42:23.380Z,41.02371
2023-04-05T10:47:24.823Z,37.63262
2023-04-05T10:52:26.160Z,39.91577
2023-04-05T10:57:27.466Z,38.40364
2023-04-05T11:02:28.835Z,38.37132
2023-04-05T11:07:30.341Z,39.26581
2023-04-05T11:12:31.587Z,35.79076
2023-04-05T11:17:33.252Z,36.83269
2023-04-05T11:22:34.672Z,36.2053
2023-04-05T11:27:36.242Z,35.72548
2023-04-05T11:32:37.800Z,36.20579
2023-04-05T11:37:39.183Z,38.82098
2023-04-05T11:42:40.473Z,39.42646
2023-04-05T11:47:41.796Z,40.37639
2023-04-05T11:52:43.518Z,40.54872
2023-04-05T11:57:44.825Z,38.23628
2023-04-05T12:02:46.292Z,40.60351
2023-04-05T12:07:47.792Z,35.44079
2023-04-05T12:12:49.175Z,35.04904
2023-04-05T12:17:50.691Z,35.82512
2023-04-05T12:22:52.333Z,34.41875
2023-04-05T12:27:53.678Z,33.82208
2023-04-05T12:32:55.267Z,33.87195
2023-04-05T12:37:56.644Z,37.15099
2023-04-05T12:42:58.286Z,33.69176
2023-04-05T12:47:59.629Z,33.54437
2023-04-05T12:53:00.957Z,34.38323
2023-04-05T12:58:02.464Z,34.16443
2023-04-05T13:03:04.101Z,34.01825
2023-04-05T13:08:05.552Z,33.64654
2023-04-05T13:13:06.838Z,32.95093
2023-04-05T13:18:08.170Z,33.78111
2023-04-05T13:23:09.723Z,34.26527
2023-04-05T13:28:10.994Z,35.96987
2023-04-05T13:33:12.561Z,35.42829
2023-04-05T13:38:14.179Z,35.15202
2023-04-05T13:43:15.537Z,33.94133
2023-04-05T13:48:17.183Z,35.70952
2023-04-05T13:53:18.958Z,34.0276
2023-04-05T13:58:20.228Z,34.69321
2023-04-05T14:03:21.673Z,34.228
2023-04-05T14:08:23.645Z,34.10682
2023-04-05T14:13:25.000Z,33.93161
2023-04-05T14:18:26.547Z,34.20722
2023-04-05T14:23:27.846Z,34.49985
2023-04-05T14:28:29.336Z,35.36863
2023-04-05T14:33:30.617Z,35.78879
2023-04-05T14:38:32.340Z,38.07065
2023-04-05T14:43:33.601Z,38.24124
2023-04-05T14:48:35.079Z,40.18812
2023-04-05T14:53:36.466Z,37.77728
2023-04-05T14:58:37.831Z,40.47243
2023-04-05T15:03:39.332Z,40.93988
2023-04-05T15:08:41.049Z,40.06663
2023-04-05T15:13:42.373Z,41.77431
2023-04-05T15:18:44.119Z,41.08235
2023-04-05T15:23:45.888Z,42.06914
2023-04-05T15:28:47.435Z,41.68449
2023-04-05T15:33:48.800Z,42.31721
2023-04-05T15:38:50.475Z,43.38728
2023-04-05T15:43:51.701Z,43.70904
2023-04-05T15:48:53.025Z,46.34504
2023-04-05T15:53:54.396Z,45.00138
2023-04-05T15:58:55.652Z,46.17963
2023-04-05T16:03:56.993Z,46.11359
2023-04-05T16:08:58.423Z,46.3954
2023-04-05T16:14:00.182Z,47.41337
2023-04-05T16:19:02.059Z,46.91844
2023-04-05T16:24:03.956Z,48.47907
2023-04-05T16:29:05.456Z,47.13596
2023-04-05T16:34:06.856Z,49.42319
2023-04-05T16:39:08.501Z,49.07013
2023-04-05T16:44:10.243Z,49.53886
2023-04-05T16:49:11.516Z,49.8054
2023-04-05T16:54:13.058Z,51.16346
2023-04-05T16:59:14.583Z,52.91964
2023-04-05T17:04:16.136Z,52.37328
2023-04-05T17:09:17.520Z,53.78964
2023-04-05T17:14:18.799Z,53.70318
2023-04-05T17:19:20.265Z,53.68883
2023-04-05T17:24:22.034Z,56.68288
2023-04-05T17:29:23.370Z,56.8989
2023-04-05T17:34:24.749Z,56.73506
2023-04-05T17:39:26.354Z,57.69325
2023-04-05T17:44:27.588Z,58.44251
2023-04-05T17:49:28.933Z,57.75091
2023-04-05T17:54:30.340Z,57.66998
2023-04-05T17:59:32.371Z,58.95136
2023-04-05T18:04:33.734Z,59.13998
2023-04-05T18:09:35.215Z,59.14107
2023-04-05T18:14:36.535Z,59.77809
2023-04-05T18:19:38.242Z,59.89851
2023-04-05T18:24:39.611Z,60.10488
2023-04-05T18:29:41.226Z,59.7977
2023-04-05T18:34:42.596Z,60.82385
2023-04-05T18:39:44.102Z,60.99114
2023-04-05T18:44:45.324Z,61.14728
2023-04-05T18:49:46.757Z,61.30434
2023-04-05T18:54:48.128Z,62.32437
2023-04-05T18:59:49.384Z,62.27303
2023-04-05T19:04:50.675Z,63.13661
2023-04-05T19:09:52.092Z,67.08764
2023-04-05T19:14:53.544Z,66.52836
2023-04-05T19:19:55.172Z,66.73908
2023-04-05T19:24:56.557Z,68.12392
2023-04-05T19:29:57.818Z,66.36506
2023-04-05T19:34:59.136Z,67.82661
2023-04-05T19:40:00.608Z,69.69809
2023-04-05T19:45:02.048Z,69.06823
2023-04-05T19:50:03.612Z,70.14516
2023-04-05T19:55:04.953Z,69.97234
2023-04-05T20:00:06.184Z,69.0107
2023-04-05T20:05:07.607Z,73.11211
2023-04-05T20:10:08.986Z,75.36797
2023-04-05T20:15:10.377Z,73.60225
2023-04-05T20:20:11.880Z,76.00564
2023-04-05T20:25:13.469Z,76.73225
2023-04-05T20:30:14.720Z,73.42751
2023-04-05T20:35:16.024Z,71.24386
2023-04-05T20:40:17.610Z,70.76935
2023-04-05T20:45:18.956Z,72.8555
2023-04-05T20:50:20.224Z,70.422
2023-04-05T20:55:21.766Z,69.64646
2023-04-05T21:00:23.292Z,70.88894
2023-04-05T21:05:24.609Z,70.00704
2023-04-05T21:10:26.209Z,71.11711
2023-04-05T21:15:27.511Z,71.31598
2023-04-05T21:20:28.849Z,68.16393
2023-04-05T21:25:30.212Z,74.00972
2023-04-05T21:30:31.473Z,75.35296
2023-04-05T21:35:32.796Z,75.35646
2023-04-05T21:40:34.457Z,76.49217
2023-04-05T21:45:35.876Z,73.1005
2023-04-05T21:50:37.431Z,74.6715
2023-04-05T21:55:39.067Z,77.47008
2023-04-05T22:00:40.564Z,78.40375
2023-04-05T22:05:41.965Z,77.12402
2023-04-05T22:10:43.297Z,77.80828
2023-04-05T22:15:44.564Z,78.83215
2023-04-05T22:20:46.133Z,80.90735
2023-04-05T22:25:47.764Z,76.55406
2023-04-05T22:30:49.145Z,79.87302
2023-04-05T22:35:50.493Z,75.75228
2023-04-05T22:40:51.750Z,76.02304
2023-04-05T22:45:53.083Z,74.31495
2023-04-05T22:50:54.403Z,76.15682
2023-04-05T22:55:55.909Z,80.85566
2023-04-05T23:00:57.262Z,78.83724
2023-04-05T23:05:58.513Z,78.00082
2023-04-05T23:10:59.861Z,77.45431
2023-04-05T23:16:01.363Z,77.01736
2023-04-05T23:21:02.565Z,77.85669
2023-04-05T23:26:03.892Z,76.3567
2023-04-05T23:31:05.278Z,78.68736
2023-04-05T23:36:06.825Z,77.89752
2023-04-05T23:41:08.161Z,77.14202
2023-04-05T23:46:09.433Z,80.25265
2023-04-05T23:51:10.708Z,82.90147
2023-04-05T23:56:12.071Z,83.46104
